Emmaus, Pennsylvania
Current Conditions -  °F | °C
As of 4:55 AM on Sunday 25 Jan 2015 (Local Time) from KXLL Reporting Station
Scattered Clouds Scattered Clouds  
Wind Chill: 29°   Ceiling: Unl
Heat Index: 34°   Visibility: 10mi
Dew Point: 28°   Wind: 6mph
Humidity: 81%   Direction: 240°WSW
Pressure: 29.65"   Gusts: NA
Location:  40.54°N, 75.49°W
Report Text: KXLL 250955Z AUTO 24005KT 10SM SCT065 01/M02 A2965 RMK AO2
Loading
Personal Weather Stations






























Interactive Weather Map New forecast layout! Learn more

10-Day Weather Forecast

Advertisements
Track Severe Weather on mobile